Вятское

Карта отелей и гостиниц, располагающихся рядом с аэропортом Вятское :

Вятское Хабаровский край 48° 44' 38.4" N, 135° 44' 6.2988" E
Вятское Хабаровский край 48° 44' 38.4" N, 135° 44' 6.2988" E
Код аэродрома ИКАО: 
HD31
Код аэродрома RU: 
ХД31
Координаты: 
N48.74400° E135.73508°
Превышение над уровнем моря : 
50
Основная полоса: 
18/36
Курс магнитный: 
175/355
Длина основной ВПП: 
21
Ширина основной ВПП: 
20
Покрытие основной ВПП: 
Твёрдое (бетон)
Освещение ВПП: 
Нет
Тип: 
Вертодром
Класс аэродрома: 
Принадлежность: 
МО
Статус: 
Действующий
Сайт: 
E-mail аэродрома: 
Страна: 
Россия
Регион: 
Хабаровский край
Город: 
Дополнительная информация: 
Действит. индекс "ЬХЩВ" (нетранслитерируемый).

Найти трансфер

С помощью этой формы Вы можете найти трансфер из аэропорта Вятское в город, аэропорт или вокзал:

Карта места

Javascript is required to view this map.

Погода в аэропортах:

Авиационная погода в Богашево

Регион: 
Погода METAR: 
UNTT 281930Z 26003MPS 8000 -SHRA FEW021CB 09/06 Q1018 R21/090060 NOSIG RMK QFE748
Время наблюдения: 
2020-09-28T19:30:00Z
Температура C: 
9.0
Точка росы: 
6.0
Направление ветра: 
260
Скорость ветра (узлы): 
6
Метеорологическая видимость: 
4.97
Явления погоды: 
-SHRA
Условия полета: 
MVFR
Аэропорт подробнее: 

Авиационная погода в Усть-Каменогорске

Регион: 
Погода METAR: 
UASK 282000Z 26002MPS 5000 BR BKN031 BKN083 04/03 Q1026 R30/090060 NOSIG RMK QFE743/0991
Время наблюдения: 
2020-09-28T20:00:00Z
Температура C: 
4.0
Точка росы: 
3.0
Направление ветра: 
260
Скорость ветра (узлы): 
4
Метеорологическая видимость: 
3.11
Явления погоды: 
BR
Условия полета: 
MVFR
Аэропорт подробнее: 

Авиационная погода в Полярном

Регион: 
Погода METAR: 
UERP 282000Z 33007G12MPS 3000 -SHSN BLSN BKN009CB OVC100 M03/M03 Q0993 R35/290340 NOSIG RMK QFE701
Время наблюдения: 
2020-09-28T20:00:00Z
Температура C: 
-3.0
Точка росы: 
-3.0
Направление ветра: 
330
Скорость ветра (узлы): 
14
Метеорологическая видимость: 
1.86
Явления погоды: 
-SHSN BLSN
Условия полета: 
IFR
Аэропорт подробнее: 

Авиационная погода в Кневичи

Регион: 
Погода METAR: 
UHWW 281930Z 35003MPS 5000 BR BKN020 15/15 Q1011 R25L/0///70 NOSIG RMK QFE757
Время наблюдения: 
2020-09-28T19:30:00Z
Температура C: 
15.0
Точка росы: 
15.0
Направление ветра: 
350
Скорость ветра (узлы): 
6
Метеорологическая видимость: 
3.11
Явления погоды: 
BR
Условия полета: 
MVFR
Аэропорт подробнее: